Watkins, CO

5:51 PM MDT on September 04, 2015 (GMT -0600)
Front Range | | Change Station
CLOSE
Current Station
Airport
Location: Denver,
Elevation: 5512 ft
Nearby Weather Stations

Elev 5512 ft 39.79 °N, 104.54 °W | Updated 1 hour ago

Mostly Cloudy
Mostly Cloudy
84 °F
Feels Like 84 °F
N
12
Wind Variable Wind from South

Today
High -- | Low -- °F
--% Chance of Precip.
Yesterday
High -- | Low -- °F
Precip. -- in
6:28 AM 7:24 PM
Waning Gibbous, 55% visible
Pressure 29.97 in
Visibility 30.0 miles
Clouds Mostly Cloudy 10000 ft
Mostly Cloudy 16000 ft
Dew Point 36 °F
Humidity 18%
Rainfall 0.00 in
Snow Depth Not available.
UV 2 out of 12
Pollen 10.10 out of 12
Air Quality Not available.
Flu Activity Not available.
METAR KFTG 042248Z 18010KT 30SM BKN100 BKN160 29/02 A2997
Pressure 29.97 in
Visibility 30.0 miles
Clouds Mostly Cloudy 10000 ft
Mostly Cloudy 16000 ft
Dew Point 36 °F
Humidity 18%
Rainfall 0.00 in
Snow Depth Not available.
UV 2 out of 12
Pollen 10.10 out of 12
Air Quality Not available.
Flu Activity Not available.
METAR KFTG 042248Z 18010KT 30SM BKN100 BKN160 29/02 A2997

10-Day Weather Forecast

×

Almanac

Astronomy

Sep. 04, 2015 Rise Set
Actual Time
Civil Twilight
Nautical Twilight
Astronomical Twilight
Moon
Length of Visible Light
Length of Day
Tomorrow will be .
, % of the Moon is Illuminated

Today's Extremes

State Highs State Lows

Community

WunderPhotos

Upload Photos

1,852,338 photos uploaded!

WunderBlogs® & News

Nearby

Air Quality

  Air Quality AQ Index Pollutant
Not available.

Snow Depth

Station Depth Elevation

Earthquake Activity

City Distance Mag. Time & Date
Minimum magnitude displayed is 2.5.

Coastal Water Temperatures

Place Temperature

Stations

Nearby Weather Stations

Station Location Temp. Windchill Dew Point Humidity Wind Precip. Elev Updated Type